createdAt,value
2023-04-14T00:00:20.245Z,4.68
2023-04-14T00:02:24.715Z,4.45
2023-04-14T00:04:29.110Z,3.67
2023-04-14T00:06:30.871Z,2.75
2023-04-14T00:08:32.306Z,3.03
2023-04-14T00:12:39.638Z,2.47
2023-04-14T00:16:48.001Z,1.08
2023-04-14T00:18:50.795Z,1.42
2023-04-14T00:20:56.178Z,1.23
2023-04-14T00:23:16.168Z,0.93
2023-04-14T00:25:17.781Z,0.95
2023-04-14T00:27:19.230Z,1.08
2023-04-14T00:29:23.838Z,0.95
2023-04-14T00:33:29.467Z,1.00
2023-04-14T00:37:39.537Z,0.80
2023-04-14T00:39:43.632Z,1.00
2023-04-14T00:41:50.453Z,0.82
2023-04-14T00:43:55.391Z,1.10
2023-04-14T00:45:57.774Z,1.02
2023-04-14T00:47:59.782Z,1.02
2023-04-14T00:50:05.576Z,0.82
2023-04-14T00:52:08.160Z,3.15
2023-04-14T00:54:29.737Z,1.10
2023-04-14T00:56:33.317Z,1.17
2023-04-14T00:58:38.465Z,1.20
2023-04-14T01:00:40.101Z,1.35
2023-04-14T01:04:54.425Z,2.95
2023-04-14T01:07:16.950Z,4.30
2023-04-14T01:09:39.148Z,3.50
2023-04-14T01:12:02.817Z,4.40
2023-04-14T01:14:07.037Z,4.03
2023-04-14T01:16:13.673Z,4.35
2023-04-14T01:18:25.733Z,4.60
2023-04-14T01:20:42.373Z,4.30
2023-04-14T01:22:55.415Z,3.37
2023-04-14T01:25:18.024Z,2.90
2023-04-14T01:27:19.533Z,2.63
2023-04-14T01:29:37.733Z,2.10
2023-04-14T01:32:06.026Z,1.85
2023-04-14T01:34:14.417Z,2.20
2023-04-14T01:36:23.380Z,2.63
2023-04-14T01:38:30.224Z,2.58
2023-04-14T01:40:33.026Z,2.65
2023-04-14T01:42:36.670Z,2.25
2023-04-14T01:44:40.533Z,1.67
2023-04-14T01:46:45.475Z,2.20
2023-04-14T01:48:48.005Z,3.72
2023-04-14T01:50:53.313Z,3.05
2023-04-14T01:52:58.400Z,2.75
2023-04-14T01:55:05.790Z,2.00
2023-04-14T01:57:26.538Z,2.05
2023-04-14T01:59:29.064Z,2.38
2023-04-14T02:01:32.485Z,2.80
2023-04-14T02:03:37.236Z,3.40
2023-04-14T02:05:42.342Z,2.65
2023-04-14T02:07:47.356Z,2.20
2023-04-14T02:09:49.261Z,2.58
2023-04-14T02:11:51.771Z,1.95
2023-04-14T02:13:54.909Z,2.60
2023-04-14T02:15:57.774Z,2.05
2023-04-14T02:18:19.332Z,1.67
2023-04-14T02:20:23.501Z,4.38
2023-04-14T02:22:27.877Z,2.95
2023-04-14T02:24:30.736Z,1.80
2023-04-14T02:26:32.811Z,1.80
2023-04-14T02:28:40.463Z,2.25
2023-04-14T02:30:44.550Z,2.20
2023-04-14T02:32:51.967Z,1.88
2023-04-14T02:35:00.835Z,1.95
2023-04-14T02:37:09.355Z,1.90
2023-04-14T02:39:39.599Z,1.52
2023-04-14T02:41:43.392Z,1.80
2023-04-14T02:43:49.156Z,1.98
2023-04-14T02:45:55.806Z,2.00
2023-04-14T02:48:03.429Z,4.20
2023-04-14T02:50:05.792Z,1.70
2023-04-14T02:52:10.778Z,2.33
2023-04-14T02:54:32.353Z,1.48
2023-04-14T02:56:36.682Z,1.52
2023-04-14T02:58:41.241Z,2.30
2023-04-14T03:00:46.686Z,1.67
2023-04-14T03:02:48.417Z,1.70
2023-04-14T03:04:50.300Z,1.40
2023-04-14T03:06:54.742Z,1.98
2023-04-14T03:09:00.394Z,1.45
2023-04-14T03:11:05.316Z,1.38
2023-04-14T03:13:09.888Z,2.00
2023-04-14T03:15:11.949Z,2.08
2023-04-14T03:17:24.941Z,1.50
2023-04-14T03:19:30.772Z,1.63
2023-04-14T03:21:38.161Z,1.55
2023-04-14T03:23:46.086Z,2.40
2023-04-14T03:25:53.408Z,1.83
2023-04-14T03:28:03.232Z,1.95
2023-04-14T03:30:09.440Z,1.48
2023-04-14T03:32:17.954Z,1.48
2023-04-14T03:34:26.247Z,1.02
2023-04-14T03:36:33.547Z,1.30
2023-04-14T03:38:40.803Z,1.27
2023-04-14T03:40:48.868Z,1.23
2023-04-14T03:42:55.306Z,1.45
2023-04-14T03:45:03.172Z,1.30
2023-04-14T03:47:09.108Z,1.20
2023-04-14T03:49:17.633Z,1.20
2023-04-14T03:51:22.163Z,1.00
2023-04-14T03:53:28.020Z,1.35
2023-04-14T03:55:32.542Z,0.85
2023-04-14T03:59:39.047Z,1.02
2023-04-14T04:01:44.401Z,1.08
2023-04-14T04:03:49.098Z,1.15
2023-04-14T04:05:50.817Z,1.23
2023-04-14T04:08:11.252Z,1.17
2023-04-14T04:10:13.586Z,2.63
2023-04-14T04:12:19.214Z,1.80
2023-04-14T04:14:21.728Z,1.83
2023-04-14T04:16:26.750Z,1.25
2023-04-14T04:18:29.134Z,1.35
2023-04-14T04:20:34.689Z,1.30
2023-04-14T04:22:41.057Z,1.30
2023-04-14T04:24:45.978Z,1.20
2023-04-14T04:26:48.141Z,2.15
2023-04-14T04:28:52.575Z,1.20
2023-04-14T04:30:54.793Z,1.48
2023-04-14T04:33:02.102Z,1.67
2023-04-14T04:35:07.382Z,3.43
2023-04-14T04:37:11.961Z,1.05
2023-04-14T04:39:16.117Z,0.88
2023-04-14T04:41:24.783Z,1.20
2023-04-14T04:43:28.778Z,2.75
2023-04-14T04:45:38.969Z,0.90
2023-04-14T04:47:58.888Z,1.40
2023-04-14T04:50:03.744Z,1.10
2023-04-14T04:52:05.336Z,1.35
2023-04-14T04:54:06.837Z,2.40
2023-04-14T04:56:08.409Z,1.08
2023-04-14T04:58:10.011Z,1.48
2023-04-14T05:00:14.292Z,1.48
2023-04-14T05:02:18.649Z,2.00
2023-04-14T05:04:23.298Z,1.73
2023-04-14T05:06:28.258Z,1.55
2023-04-14T05:08:32.418Z,1.45
2023-04-14T05:10:34.718Z,1.00
2023-04-14T05:12:39.014Z,1.38
2023-04-14T05:14:40.410Z,1.60
2023-04-14T05:18:49.219Z,1.95
2023-04-14T05:20:50.836Z,2.13
2023-04-14T05:22:52.390Z,2.20
2023-04-14T05:24:53.856Z,3.47
2023-04-14T05:27:13.108Z,3.55
2023-04-14T05:29:18.538Z,2.83
2023-04-14T05:31:23.295Z,3.63
2023-04-14T05:33:24.783Z,2.42
2023-04-14T05:37:34.488Z,1.90
2023-04-14T05:39:40.391Z,2.10
2023-04-14T05:43:46.199Z,2.35
2023-04-14T05:45:51.308Z,3.03
2023-04-14T05:47:55.658Z,4.32
2023-04-14T05:49:58.438Z,3.83
2023-04-14T05:52:02.602Z,3.30
2023-04-14T05:54:07.013Z,3.47
2023-04-14T05:56:27.614Z,3.13
2023-04-14T05:58:29.005Z,3.53
2023-04-14T06:00:48.828Z,2.67
2023-04-14T06:02:53.259Z,2.83
2023-04-14T06:04:55.229Z,4.55
2023-04-14T06:06:59.710Z,3.20
2023-04-14T06:09:01.650Z,4.03
2023-04-14T06:11:03.309Z,3.08
2023-04-14T06:15:13.035Z,3.17
2023-04-14T06:17:17.306Z,4.13
2023-04-14T06:19:22.174Z,4.97
2023-04-14T06:21:23.608Z,5.47
2023-04-14T06:23:43.611Z,5.20
2023-04-14T06:25:56.669Z,3.60
2023-04-14T06:27:58.684Z,4.45
2023-04-14T06:30:01.073Z,4.00
2023-04-14T06:32:05.168Z,3.65
2023-04-14T06:34:09.571Z,4.43
2023-04-14T06:36:11.255Z,4.40
2023-04-14T06:40:17.000Z,2.20
2023-04-14T06:42:21.218Z,3.03
2023-04-14T06:44:26.469Z,2.97
2023-04-14T06:46:28.680Z,2.72
2023-04-14T06:48:30.805Z,3.28
2023-04-14T06:50:34.113Z,2.35
2023-04-14T06:52:40.398Z,1.88
2023-04-14T06:54:44.327Z,1.83
2023-04-14T06:56:50.757Z,1.45
2023-04-14T06:58:57.101Z,1.20
2023-04-14T07:01:03.046Z,1.45
2023-04-14T07:03:07.865Z,1.08
2023-04-14T07:05:10.852Z,1.13
2023-04-14T07:07:16.524Z,1.92
2023-04-14T07:09:22.843Z,1.23
2023-04-14T07:11:30.009Z,1.50
2023-04-14T07:13:34.531Z,1.55
2023-04-14T07:15:36.161Z,1.40
2023-04-14T07:17:40.460Z,0.80
2023-04-14T07:19:42.509Z,1.42
2023-04-14T07:21:47.055Z,1.20
2023-04-14T07:23:53.443Z,0.88
2023-04-14T07:25:58.525Z,1.05
2023-04-14T07:28:03.477Z,0.93
2023-04-14T07:30:08.659Z,1.30
2023-04-14T07:32:11.919Z,1.42
2023-04-14T07:34:32.962Z,1.02
2023-04-14T07:36:36.402Z,3.08
2023-04-14T07:38:38.050Z,1.17
2023-04-14T07:40:42.422Z,1.50
2023-04-14T07:42:43.862Z,0.82
2023-04-14T07:44:48.203Z,1.17
2023-04-14T07:46:52.534Z,0.70
2023-04-14T07:48:55.957Z,2.15
2023-04-14T07:51:00.798Z,2.45
2023-04-14T07:55:06.203Z,1.23
2023-04-14T07:57:26.288Z,0.73
2023-04-14T07:59:27.936Z,0.70
2023-04-14T08:01:32.411Z,1.88
2023-04-14T08:03:42.013Z,2.17
2023-04-14T08:06:07.419Z,1.33
2023-04-14T08:08:28.330Z,1.67
2023-04-14T08:10:30.873Z,0.95
2023-04-14T08:12:34.974Z,1.20
2023-04-14T08:14:39.183Z,1.63
2023-04-14T08:16:41.689Z,1.40
2023-04-14T08:18:46.125Z,1.00
2023-04-14T08:22:55.604Z,1.10
2023-04-14T08:24:57.116Z,1.45
2023-04-14T08:27:02.283Z,1.38
2023-04-14T08:29:03.924Z,1.05
2023-04-14T08:31:05.712Z,1.00
2023-04-14T08:33:07.184Z,3.47
2023-04-14T08:35:39.386Z,1.55
2023-04-14T08:37:31.418Z,1.30
2023-04-14T08:39:33.379Z,2.47
2023-04-14T08:41:35.202Z,1.65
2023-04-14T08:43:39.248Z,1.92
2023-04-14T08:46:00.419Z,1.45
2023-04-14T08:48:02.828Z,3.63
2023-04-14T08:50:07.214Z,2.72
2023-04-14T08:52:14.683Z,1.50
2023-04-14T08:54:19.437Z,1.70
2023-04-14T08:56:41.172Z,1.60
2023-04-14T08:58:45.273Z,2.03
2023-04-14T09:00:47.076Z,2.10
2023-04-14T09:02:49.407Z,2.75
2023-04-14T09:04:54.081Z,1.92
2023-04-14T09:06:56.680Z,1.60
2023-04-14T09:09:03.939Z,2.38
2023-04-14T09:11:05.618Z,2.65
2023-04-14T09:13:08.934Z,2.38
2023-04-14T09:15:11.672Z,1.83
2023-04-14T09:17:13.163Z,2.15
2023-04-14T09:19:15.989Z,2.80
2023-04-14T09:21:29.439Z,2.10
2023-04-14T09:23:45.196Z,2.08
2023-04-14T09:25:46.991Z,1.85
2023-04-14T09:27:51.582Z,1.75
2023-04-14T09:29:57.039Z,2.05
2023-04-14T09:32:03.759Z,1.67
2023-04-14T09:34:14.774Z,1.58
2023-04-14T09:36:20.223Z,1.75
2023-04-14T09:38:33.086Z,1.38
2023-04-14T09:40:44.975Z,3.28
2023-04-14T09:43:05.869Z,1.17
2023-04-14T09:45:09.350Z,1.50
2023-04-14T09:47:11.138Z,1.73
2023-04-14T09:49:12.806Z,1.58
2023-04-14T09:51:18.795Z,1.70
2023-04-14T09:53:27.706Z,2.00
2023-04-14T09:55:29.485Z,2.97
2023-04-14T09:57:34.450Z,1.33
2023-04-14T09:59:38.954Z,1.95
2023-04-14T10:03:44.537Z,1.33
2023-04-14T10:05:48.755Z,1.70
2023-04-14T10:07:53.148Z,1.50
2023-04-14T10:09:58.048Z,1.23
2023-04-14T10:12:20.523Z,1.65
2023-04-14T10:14:24.873Z,1.90
2023-04-14T10:16:27.331Z,1.13
2023-04-14T10:18:28.936Z,1.52
2023-04-14T10:22:53.642Z,1.48
2023-04-14T10:25:14.436Z,1.33
2023-04-14T10:27:34.723Z,1.88
2023-04-14T10:29:41.018Z,1.40
2023-04-14T10:31:47.244Z,1.40
2023-04-14T10:33:52.453Z,1.42
2023-04-14T10:36:13.274Z,1.27
2023-04-14T10:38:18.276Z,1.00
2023-04-14T10:40:23.435Z,1.00
2023-04-14T10:42:25.142Z,1.13
2023-04-14T10:44:31.498Z,1.25
2023-04-14T10:46:45.002Z,1.10
2023-04-14T10:48:49.525Z,0.65
2023-04-14T10:50:58.997Z,1.00
2023-04-14T10:53:06.934Z,0.85
2023-04-14T10:55:08.863Z,1.08
2023-04-14T10:57:14.557Z,1.17
2023-04-14T10:59:17.561Z,1.20
2023-04-14T11:01:33.233Z,1.23
2023-04-14T11:03:45.099Z,0.70
2023-04-14T11:06:06.567Z,2.28
2023-04-14T11:08:19.468Z,0.80
2023-04-14T11:10:21.461Z,0.93
2023-04-14T11:12:24.481Z,1.20
2023-04-14T11:14:33.264Z,1.38
2023-04-14T11:16:44.610Z,0.90
2023-04-14T11:18:55.610Z,0.73
2023-04-14T11:21:11.588Z,1.15
2023-04-14T11:23:16.711Z,0.70
2023-04-14T11:25:24.090Z,1.65
2023-04-14T11:27:29.586Z,1.30
2023-04-14T11:29:36.057Z,1.25
2023-04-14T11:33:42.500Z,1.13
2023-04-14T11:35:47.394Z,0.90
2023-04-14T11:37:59.482Z,1.08
2023-04-14T11:40:05.548Z,1.20
2023-04-14T11:42:10.097Z,1.92
2023-04-14T11:44:16.051Z,1.20
2023-04-14T11:46:23.080Z,0.75
2023-04-14T11:48:24.553Z,1.10
2023-04-14T11:50:31.367Z,0.90
2023-04-14T11:52:33.712Z,1.23
2023-04-14T11:54:53.537Z,1.20
2023-04-14T11:56:55.070Z,1.38
2023-04-14T11:59:00.743Z,1.42
2023-04-14T12:01:05.170Z,1.08
2023-04-14T12:05:12.121Z,1.33
2023-04-14T12:07:14.889Z,0.98
2023-04-14T12:09:35.463Z,2.30
2023-04-14T12:13:44.604Z,0.90
2023-04-14T12:15:46.453Z,2.25
2023-04-14T12:17:50.878Z,0.60
2023-04-14T12:19:55.563Z,0.88
2023-04-14T12:22:00.058Z,0.90
2023-04-14T12:24:04.348Z,0.90
2023-04-14T12:26:09.532Z,0.98
2023-04-14T12:28:29.728Z,0.80
2023-04-14T12:30:31.211Z,1.42
2023-04-14T12:32:40.726Z,0.70
2023-04-14T12:34:55.408Z,0.93
2023-04-14T12:37:00.140Z,0.63
2023-04-14T12:39:05.531Z,0.70
2023-04-14T12:41:27.721Z,0.80
2023-04-14T12:43:36.696Z,1.17
2023-04-14T12:45:51.783Z,0.80
2023-04-14T12:47:56.871Z,0.70
2023-04-14T12:50:02.581Z,0.85
2023-04-14T12:52:08.290Z,0.85
2023-04-14T12:54:44.770Z,0.63
2023-04-14T12:56:49.151Z,0.70
2023-04-14T12:59:11.405Z,0.80
2023-04-14T13:01:32.063Z,0.93
2023-04-14T13:03:40.865Z,0.55
2023-04-14T13:05:42.958Z,0.90
2023-04-14T13:07:47.072Z,0.60
2023-04-14T13:09:52.033Z,0.70
2023-04-14T13:11:54.993Z,0.57
2023-04-14T13:14:00.552Z,0.65
2023-04-14T13:16:14.703Z,0.60
2023-04-14T13:18:22.531Z,0.93
2023-04-14T13:20:24.148Z,0.50
2023-04-14T13:22:30.201Z,0.80
2023-04-14T13:24:34.546Z,0.85
2023-04-14T13:26:40.247Z,0.98
2023-04-14T13:28:41.941Z,0.73
2023-04-14T13:30:43.923Z,0.63
2023-04-14T13:32:50.164Z,0.43
2023-04-14T13:34:52.548Z,0.70
2023-04-14T13:36:57.269Z,0.90
2023-04-14T13:38:58.757Z,0.40
2023-04-14T13:41:01.864Z,1.05
2023-04-14T13:43:06.177Z,0.28
2023-04-14T13:45:11.020Z,0.55
2023-04-14T13:47:15.224Z,0.68
2023-04-14T13:49:16.637Z,0.47
2023-04-14T13:51:21.892Z,1.05
2023-04-14T13:53:23.494Z,0.50
2023-04-14T13:55:27.825Z,0.85
2023-04-14T13:57:29.342Z,1.52
2023-04-14T13:59:50.246Z,0.45
2023-04-14T14:01:51.809Z,0.60
2023-04-14T14:03:53.646Z,0.50
2023-04-14T14:05:55.409Z,0.52
2023-04-14T14:08:16.628Z,0.82
2023-04-14T14:10:20.897Z,0.80
2023-04-14T14:12:25.140Z,0.90
2023-04-14T14:14:26.544Z,1.00
2023-04-14T14:18:33.426Z,0.73
2023-04-14T14:20:34.966Z,0.98
2023-04-14T14:22:39.149Z,0.85
2023-04-14T14:24:40.605Z,0.90
2023-04-14T14:26:44.706Z,2.85
2023-04-14T14:28:47.193Z,0.63
2023-04-14T14:30:49.569Z,1.55
2023-04-14T14:32:54.075Z,2.05
2023-04-14T14:34:58.236Z,1.73
2023-04-14T14:36:59.775Z,1.10
2023-04-14T14:39:01.682Z,1.10
2023-04-14T14:41:04.030Z,1.40
2023-04-14T14:43:05.445Z,1.15
2023-04-14T14:45:10.074Z,0.82
2023-04-14T14:47:11.617Z,0.90
2023-04-14T14:49:13.817Z,1.30
2023-04-14T14:51:15.573Z,1.60
2023-04-14T14:53:19.588Z,1.10
2023-04-14T14:57:28.673Z,1.30
2023-04-14T14:59:32.074Z,1.20
2023-04-14T15:01:37.344Z,1.05
2023-04-14T15:03:41.638Z,1.57
2023-04-14T15:05:48.479Z,1.00
2023-04-14T15:07:52.939Z,1.10
2023-04-14T15:09:54.488Z,1.90
2023-04-14T15:11:57.121Z,0.90
2023-04-14T15:13:59.830Z,0.95
2023-04-14T15:16:04.625Z,1.10
2023-04-14T15:18:08.944Z,1.10
2023-04-14T15:20:14.190Z,0.82
2023-04-14T15:22:16.800Z,0.60
2023-04-14T15:24:19.592Z,1.15
2023-04-14T15:26:21.177Z,0.65
2023-04-14T15:28:41.287Z,0.90
2023-04-14T15:30:45.384Z,1.35
2023-04-14T15:32:49.828Z,1.02
2023-04-14T15:35:09.911Z,0.93
2023-04-14T15:37:14.201Z,1.00
2023-04-14T15:39:15.744Z,1.05
2023-04-14T15:41:20.328Z,1.10
2023-04-14T15:43:21.818Z,1.50
2023-04-14T15:45:26.237Z,0.70
2023-04-14T15:47:29.577Z,0.63
2023-04-14T15:49:35.679Z,1.10
2023-04-14T15:51:42.049Z,0.73
2023-04-14T15:54:05.136Z,0.73
2023-04-14T15:56:11.882Z,2.15
2023-04-14T15:58:17.695Z,0.73
2023-04-14T16:00:23.537Z,0.60
2023-04-14T16:02:29.785Z,0.70
2023-04-14T16:04:33.605Z,0.70
2023-04-14T16:06:40.285Z,0.75
2023-04-14T16:08:43.838Z,1.30
2023-04-14T16:10:50.433Z,0.88
2023-04-14T16:12:53.932Z,0.52
2023-04-14T16:15:16.292Z,1.08
2023-04-14T16:17:23.748Z,0.60
2023-04-14T16:19:30.295Z,0.40
2023-04-14T16:21:35.252Z,0.80
2023-04-14T16:23:36.998Z,0.60
2023-04-14T16:25:41.623Z,0.60
2023-04-14T16:27:46.224Z,1.02
2023-04-14T16:29:47.926Z,0.70
2023-04-14T16:31:49.574Z,0.50
2023-04-14T16:33:51.310Z,0.77
2023-04-14T16:35:52.933Z,0.52
2023-04-14T16:37:57.212Z,1.85
2023-04-14T16:39:58.825Z,1.00
2023-04-14T16:42:03.000Z,0.57
2023-04-14T16:44:23.139Z,0.93
2023-04-14T16:46:26.128Z,0.32
2023-04-14T16:48:27.784Z,0.43
2023-04-14T16:50:29.515Z,0.60
2023-04-14T16:52:31.146Z,0.30
2023-04-14T16:54:37.739Z,0.50
2023-04-14T16:56:42.064Z,0.43
2023-04-14T16:58:46.434Z,0.80
2023-04-14T17:00:50.615Z,0.40
2023-04-14T17:02:52.365Z,0.60
2023-04-14T17:04:54.166Z,0.65
2023-04-14T17:06:56.929Z,0.77
2023-04-14T17:09:00.837Z,0.88
2023-04-14T17:11:02.644Z,0.57
2023-04-14T17:13:07.153Z,0.73
2023-04-14T17:15:09.041Z,1.38
2023-04-14T17:17:10.695Z,0.50
2023-04-14T17:19:15.975Z,0.63
2023-04-14T17:21:17.628Z,0.50
2023-04-14T17:23:20.374Z,0.60
2023-04-14T17:25:22.001Z,0.50
2023-04-14T17:27:23.477Z,0.65
2023-04-14T17:31:49.884Z,0.70
2023-04-14T17:33:51.386Z,0.80
2023-04-14T17:35:55.779Z,0.85
2023-04-14T17:38:16.015Z,1.30
2023-04-14T17:40:18.432Z,1.60
2023-04-14T17:42:24.992Z,1.80
2023-04-14T17:44:33.591Z,1.65
2023-04-14T17:46:35.078Z,1.15
2023-04-14T17:48:36.595Z,0.73
2023-04-14T17:50:38.079Z,0.63
2023-04-14T17:52:39.760Z,0.80
2023-04-14T17:54:41.435Z,0.70
2023-04-14T17:56:45.947Z,0.73
2023-04-14T17:58:52.090Z,0.90
2023-04-14T18:01:12.478Z,0.90
2023-04-14T18:03:15.820Z,0.70
2023-04-14T18:05:37.349Z,0.75
2023-04-14T18:07:41.920Z,1.00
2023-04-14T18:09:43.459Z,1.00
2023-04-14T18:11:48.032Z,0.57
2023-04-14T18:13:49.514Z,1.30
2023-04-14T18:15:53.534Z,1.63
2023-04-14T18:17:57.881Z,1.67
2023-04-14T18:19:59.642Z,0.70
2023-04-14T18:22:01.233Z,1.13
2023-04-14T18:28:20.113Z,0.83
2023-04-14T18:30:21.511Z,0.55
2023-04-14T18:32:25.303Z,0.60
2023-04-14T18:34:29.597Z,0.52
2023-04-14T18:36:32.430Z,1.43
2023-04-14T18:38:36.457Z,0.80
2023-04-14T18:42:44.996Z,1.10
2023-04-14T18:44:49.381Z,0.60
2023-04-14T18:46:51.474Z,0.90
2023-04-14T18:49:11.772Z,0.60
2023-04-14T18:51:13.357Z,1.10
2023-04-14T18:53:16.893Z,0.60
2023-04-14T18:55:24.403Z,0.70
2023-04-14T18:57:54.943Z,1.10
2023-04-14T19:00:11.830Z,0.90
2023-04-14T19:02:24.142Z,0.85
2023-04-14T19:04:33.679Z,1.65
2023-04-14T19:06:46.743Z,2.65
2023-04-14T19:08:55.592Z,3.33
2023-04-14T19:11:04.804Z,2.17
2023-04-14T19:13:14.503Z,2.70
2023-04-14T19:15:24.924Z,1.90
2023-04-14T19:17:40.432Z,1.77
2023-04-14T19:19:55.123Z,1.83
2023-04-14T19:22:07.668Z,2.47
2023-04-14T19:24:16.759Z,1.55
2023-04-14T19:26:27.977Z,1.48
2023-04-14T19:28:51.948Z,1.60
2023-04-14T19:30:56.934Z,1.83
2023-04-14T19:33:02.065Z,1.40
2023-04-14T19:35:03.631Z,2.10
2023-04-14T19:37:08.085Z,1.30
2023-04-14T19:39:10.169Z,1.70
2023-04-14T19:41:11.801Z,1.73
2023-04-14T19:43:14.991Z,1.80
2023-04-14T19:45:16.616Z,2.30
2023-04-14T19:47:18.132Z,1.85
2023-04-14T19:49:22.825Z,1.90
2023-04-14T19:51:27.944Z,2.22
2023-04-14T19:53:32.128Z,2.05
2023-04-14T19:55:36.510Z,2.67
2023-04-14T19:57:38.151Z,2.10
2023-04-14T19:59:40.024Z,1.73
2023-04-14T20:01:45.424Z,1.75
2023-04-14T20:04:04.692Z,1.40
2023-04-14T20:06:17.660Z,1.23
2023-04-14T20:08:22.634Z,1.35
2023-04-14T20:10:24.148Z,1.15
2023-04-14T20:12:28.510Z,1.00
2023-04-14T20:14:32.990Z,0.98
2023-04-14T20:18:40.413Z,1.33
2023-04-14T20:20:42.615Z,0.90
2023-04-14T20:22:44.337Z,1.20
2023-04-14T20:24:48.477Z,0.95
2023-04-14T20:28:58.210Z,1.20
2023-04-14T20:31:03.305Z,1.27
2023-04-14T20:33:07.793Z,1.33
2023-04-14T20:35:12.134Z,1.30
2023-04-14T20:37:16.563Z,1.27
2023-04-14T20:39:18.251Z,1.40
2023-04-14T20:41:20.606Z,2.42
2023-04-14T20:43:22.289Z,1.80
2023-04-14T20:45:26.621Z,1.67
2023-04-14T20:47:31.193Z,1.50
2023-04-14T20:49:32.721Z,1.83
2023-04-14T20:51:34.245Z,2.25
2023-04-14T20:53:38.627Z,1.95
2023-04-14T20:55:43.487Z,1.98
2023-04-14T20:57:46.277Z,2.40
2023-04-14T20:59:47.730Z,2.08
2023-04-14T21:01:49.652Z,2.00
2023-04-14T21:03:51.248Z,1.98
2023-04-14T21:05:53.278Z,2.03
2023-04-14T21:07:55.118Z,2.33
2023-04-14T21:09:56.539Z,1.98
2023-04-14T21:12:15.587Z,2.42
2023-04-14T21:15:39.933Z,2.30
2023-04-14T21:16:59.337Z,2.28
2023-04-14T21:19:19.667Z,2.40
2023-04-14T21:21:21.485Z,2.83
2023-04-14T21:23:25.916Z,2.58
2023-04-14T21:25:27.404Z,2.47
2023-04-14T21:27:28.832Z,3.10
2023-04-14T21:29:30.445Z,2.95
2023-04-14T21:31:32.018Z,3.95
2023-04-14T21:33:39.314Z,4.18
2023-04-14T21:37:42.125Z,3.97
2023-04-14T21:39:46.562Z,4.28
2023-04-14T21:41:48.496Z,4.72
2023-04-14T21:43:49.933Z,4.00
2023-04-14T21:45:54.470Z,4.72
2023-04-14T21:47:55.918Z,3.10
2023-04-14T21:49:57.535Z,2.80
2023-04-14T21:51:58.994Z,2.85
2023-04-14T21:54:21.654Z,2.88
2023-04-14T21:56:36.242Z,1.90
2023-04-14T21:58:55.331Z,1.60
2023-04-14T22:01:07.101Z,1.75
2023-04-14T22:03:25.850Z,1.45
2023-04-14T22:06:01.592Z,1.60
2023-04-14T22:08:15.895Z,1.60
2023-04-14T22:10:21.932Z,1.60
2023-04-14T22:12:39.600Z,2.00
2023-04-14T22:14:54.477Z,1.73
2023-04-14T22:17:10.777Z,1.98
2023-04-14T22:19:29.075Z,1.75
2023-04-14T22:21:48.444Z,1.80
2023-04-14T22:24:06.996Z,1.63
2023-04-14T22:26:27.090Z,1.63
2023-04-14T22:28:34.779Z,1.52
2023-04-14T22:30:39.019Z,1.65
2023-04-14T22:32:43.190Z,1.30
2023-04-14T22:34:47.636Z,1.63
2023-04-14T22:36:52.428Z,1.17
2023-04-14T22:38:57.056Z,1.58
2023-04-14T22:41:18.373Z,1.33
2023-04-14T22:43:19.872Z,1.15
2023-04-14T22:45:24.069Z,1.60
2023-04-14T22:47:25.632Z,1.60
2023-04-14T22:49:30.081Z,1.45
2023-04-14T22:51:34.774Z,1.17
2023-04-14T22:53:36.236Z,1.38
2023-04-14T22:55:57.974Z,1.50
2023-04-14T22:58:20.079Z,1.75
2023-04-14T23:00:24.593Z,1.48
2023-04-14T23:02:27.493Z,1.55
2023-04-14T23:04:29.364Z,1.73
2023-04-14T23:06:31.049Z,2.20
2023-04-14T23:10:39.154Z,1.47
2023-04-14T23:12:40.972Z,2.50
2023-04-14T23:14:45.461Z,2.13
2023-04-14T23:16:47.012Z,1.73
2023-04-14T23:20:57.425Z,2.33
2023-04-14T23:23:02.677Z,2.55
2023-04-14T23:25:07.307Z,2.67
2023-04-14T23:27:11.415Z,2.50
2023-04-14T23:29:16.007Z,2.33
2023-04-14T23:31:17.993Z,2.45
2023-04-14T23:33:21.965Z,3.13
2023-04-14T23:37:27.640Z,3.05
2023-04-14T23:39:29.349Z,3.00
2023-04-14T23:41:30.874Z,2.92
2023-04-14T23:43:35.136Z,2.67
2023-04-14T23:45:39.428Z,3.47
2023-04-14T23:47:43.701Z,3.05
2023-04-14T23:49:48.057Z,3.20
2023-04-14T23:51:49.522Z,3.50
2023-04-14T23:56:13.921Z,3.83
2023-04-14T23:58:26.026Z,4.45
